Water Levels and Discharges  |  Reservoirs  |  Precipitation  |  Water quality Last site revision 21.05.2019 07:26
       
Water Levels and Discharges All data are without validation 21.05.2019 07:27:18
Measurement summary  21.05.2019All facilities
Reservoir River DateUsable storage capacityControllable flood protection capacityNon-controllable flood protection capacity
filledfreefilledfreefilledfree
mil [m3][%]mil [m3][%]mil [m3][%]mil [m3][%]mil [m3][%]mil [m3][%]
 VD Bílsko  Bílský potok
 VD České Údolí  Radbuza 21.05.2019 07:00 2.42 96.76 0.08 3.24 - - - - 0.000 0.00 2.141 100.00
 VD Dolejší Padrťský rybník  Klabava
 VD Dráteník  Červený potok (BE) 21.05.2019 07:00 0.08 100.00 0.00 0.00 - - - - 0.002 4.29 0.049 95.71
 VD Hněvkovice  Vltava 21.05.2019 07:00 10.92 89.86 1.23 10.14 - - - - - - - -
 VD Hořejší Padrťský rybník  Klabava
 VD Hracholusky  Mže 21.05.2019 07:00 29.71 92.77 2.32 7.23 0.000 0.00 4.579 100.00 0.000 0.00 12.921 100.00
 VD Humenice  Stropnice 21.05.2019 07:00 0.10 80.35 0.02 19.65 0.000 0.00 0.485 100.00 0.000 0.00 0.184 100.00
 VD Husinec  Blanice (PI) 21.05.2019 07:00 1.97 95.54 0.09 4.46 0.000 0.00 2.814 100.00 0.000 0.00 0.909 100.00
 VD Kamýk  Vltava 21.05.2019 07:00 0.35 7.62 4.30 92.38 - - - - - - - -
 VD Karhof  Studenský potok 21.05.2019 07:00 0.28 95.91 0.01 4.09 - - - - 0.000 0.00 0.175 100.00
 VD Klabava  Klabava 21.05.2019 07:00 0.17 35.48 0.32 64.52 - - - - 0.000 0.00 4.473 100.00
 VD Klíčava  Klíčava 21.05.2019 07:00 5.48 69.71 2.38 30.29 0.000 0.00 0.573 100.00 0.000 0.00 1.598 100.00
 VD Kořensko  Vltava 21.05.2019 07:00 1.69 97.48 0.04 2.52 - - - - - - - -
 VD Láz  Litavka 21.05.2019 07:00 0.68 82.96 0.14 17.04 - - - - 0.000 0.00 0.132 100.00
 VD Lipno 1  Vltava 21.05.2019 07:00 228.88 90.47 24.11 9.53 0.000 0.00 33.156 100.00 - - - -
 VD Lipno 2  Vltava 21.05.2019 07:00 1.00 69.51 0.44 30.49 - - - - - - - -
 VD Lučina  Mže 21.05.2019 07:00 3.11 90.15 0.34 9.85 0.000 0.00 0.798 100.00 0.000 0.00 1.140 100.00
 VD Němčice  Sedlický potok 21.05.2019 07:00 0.10 94.24 0.01 5.76 - - - - 0.000 0.00 0.320 100.00
 VD Nýrsko  Úhlava 21.05.2019 07:00 14.81 92.77 1.15 7.23 0.000 0.00 2.008 100.00 0.000 0.00 1.812 100.00
 VD Obecnice  Obecnický potok 21.05.2019 07:00 0.49 91.59 0.05 8.41 - - - - 0.000 0.00 0.160 100.00
 VD Orlík  Vltava 21.05.2019 07:00 333.72 97.27 9.36 2.73 0.000 0.00 93.422 100.00 - - - -
 VD Pilská (u Příbramě)  Pilský potok 21.05.2019 07:00 1.17 86.88 0.18 13.12 - - - - 0.000 0.00 0.282 100.00
 VD Pilská u Žďáru  Sázava 21.05.2019 07:00 1.34 92.31 0.11 7.69 - - - - 0.000 0.00 0.394 100.00
 VD Římov  Malše 21.05.2019 07:00 28.54 95.07 1.48 4.93 0.000 0.00 1.552 100.00 0.000 0.00 0.169 100.00
 VD Sedlice  Želivka 21.05.2019 07:00 0.76 81.05 0.18 18.95 0.000 0.00 0.096 100.00 0.000 0.00 0.350 100.00
 VD Slapy  Vltava 21.05.2019 07:00 190.42 94.97 10.08 5.03 - - - - - - - -
 VD Soběnov  Černá 21.05.2019 07:00 0.00 2.38 0.06 97.62 - - - - 0.000 0.00 0.098 100.00
 VD Staviště  Staviště 21.05.2019 07:00 0.39 100.00 0.00 0.00 - - - - 0.002 1.64 0.137 98.36
 VD Štěchovice  Vltava 21.05.2019 07:00 3.13 74.47 1.07 25.53 - - - - - - - -
 VD Strž  Stržský potok 21.05.2019 07:00 0.30 100.00 0.00 0.00 - - - - 0.002 1.72 0.134 98.28
 VD Suchomasty  Suchomastský potok 21.05.2019 07:00 0.41 99.56 0.00 0.44 - - - - 0.000 0.00 0.073 100.00
 VD Švihov (Želivka)  Želivka 21.05.2019 07:00 238.40 96.88 7.67 3.12 - - - - 0.000 0.00 42.413 100.00
 VD Trnávka  Trnava 21.05.2019 07:00 2.09 98.50 0.03 1.50 - - - - 0.000 0.00 1.365 100.00
 VD Vrané  Vltava 21.05.2019 07:00 2.02 80.28 0.50 19.72 - - - - - - - -
 VD Vřesník  Želivka 21.05.2019 07:00 0.05 97.46 0.00 2.54 - - - - 0.000 0.00 0.241 100.00
 VD Záskalská  Červený potok (BE) 21.05.2019 07:00 0.60 100.00 0.00 0.00 - - - - 0.007 8.59 0.071 91.41
 VD Zhejral  Studenský potok 21.05.2019 06:00 0.16 100.00 0.00 0.00 - - - - 0.006 4.81 0.125 95.19
 VD Žlutice  Střela 21.05.2019 07:00 9.24 89.83 1.05 10.17 0.000 0.00 1.309 100.00 0.000 0.00 2.810 100.00
The values of capacities in the reservoirs that are at least partially filled with water are indicated in bold. Explanation: The dash - the water reservoir does not have a given capacity, the blank field of the table - the value is not measured (measurement or transmission failure).
Schema of capacities:
  Povodí Vltavy, státní podnik © 2019 The system uses also data from measuring stations of   Czech Hydrometeorological Institute © 2019 Application developed by   MGE Data s.r.o. © 1996 - 2018